Saturday, October 25, 2014
19:03 UTC
  |  Log In   |  Register Free
Airport Search:

Page Field Airport
(KFMY)

FAA data valid effective September 18, 2014 - November 13, 2014 (unless otherwise noted).

 
 
 
 
 
 
 
 
 
 
 
 
 
 

Current Aviation Weather for Page Field Airport (KFMY)

The most recent METAR observation for KFMY was updated at: 1809
METAR Summary (Translated METAR)
KFMY
251753Z VRB05G14KT 10SM CLR 27/14 A2994 RMK AO2 SLP139 T02670139 10272 20178 58013
KRSW
251753Z 01008KT 10SM CLR 27/13 A2994 RMK AO2 SLP136 T02720133 10272 20172 58013
(6.5 nm SE from KFMY)
KPGD
251753Z 36006KT 10SM CLR 27/14 A2996 RMK AO2 SLP147 T02720144 10272 20172 58014
(21.1 nm NW from KFMY)
TAF Summary (Translated TAF)
KFMY
251726Z 2518/2618 02007KT P6SM SKC FM260200 03003KT P6SM SKC FM261500 04007KT P6SM SKC
KRSW
(6.5 nm SE from KFMY)
251726Z 2518/2618 01008KT P6SM SKC FM260200 02003KT P6SM SKC FM261500 05007KT P6SM SKC
  Airport Weather Conditions for KFMY

 Current Weather at FMY
80° F
Fair
Variable winds at 5.8 mph
FMY NOAA Radar

Pressure: 29.94 in
Humidity: 45%
Wind: from the Variable at 5.8 gusting to 16.1 MPH (5 gusting to 14 KT)
Dew Point: 57.0°F
Visibility: 10.00 mi


Airport Weather Forecast for KFMY

Translated METAR and TAF for KFMY
Translated METAR for KFMY (1858 UTC 25 October 2014)
found at http://aviationweather.gov/adds/metars/
 
METAR text: KFMY 251853Z 03007KT 10SM CLR 28/13 A2991 RMK AO2 SLP130 T02780133
Conditions at: KFMY (FORT MYERS , FL, US) observed 1853 UTC 25 October 2014
Temperature: 27.8°C (82°F)
Dewpoint: 13.3°C (56°F) [RH = 41%]
Pressure (altimeter): 29.91 inches Hg (1013.0 mb)
[Sea-level pressure: 1013.0 mb]
Winds: from the NNE (30 degrees) at 8 MPH (7 knots; 3.6 m/s)
Visibility: 10 or more miles (16+ km)
Ceiling: at least 12,000 feet AGL
Clouds: sky clear below 12,000 feet AGL
Weather: no significant weather observed at this time
Translated TAF for KFMY
Forecast for: KFMY (FORT MYERS , FL, US)
TAF Text: KFMY 251726Z 2518/2618 02007KT P6SM SKC
Forecast period: 1800 UTC 25 October 2014 to 0200 UTC 26 October 2014
Forecast type: FROM: standard forecast or significant change
Winds: from the NNE (20 degrees) at 8 MPH (7 knots; 3.6 m/s)
Visibility: 6 or more miles (10+ km)
Clouds: clear skies
Weather: no significant weather forecast for this period
TAF Text: FM260200 03003KT P6SM SKC
Forecast period: 0200 to 1500 UTC 26 October 2014
Forecast type: FROM: standard forecast or significant change
Winds: from the NNE (30 degrees) at 3 MPH (3 knots; 1.6 m/s)
Visibility: 6 or more miles (10+ km)
Clouds: clear skies
Weather: no significant weather forecast for this period
TAF Text: FM261500 04007KT P6SM SKC
Forecast period: 1500 to 1800 UTC 26 October 2014
Forecast type: FROM: standard forecast or significant change
Winds: from the NE (40 degrees) at 8 MPH (7 knots; 3.6 m/s)
Visibility: 6 or more miles (10+ km)
Clouds: clear skies
Weather: no significant weather forecast for this period

Find All Airport Services Find A Hotel Find A Rental Car Find A Golf Course Find A Restaurant $100 Hamburger



FBO's on the Field
FBO Company Facility Photos Services Transportation Aviation Fuel Prices: Prices include tax
Catering Weather Repair Courtesy Rental Type 100LL JetA JetA+ MOGAS 8087
 
Base Operations at Page Field

Currently rated 4.8 by 2 people
FS:Avfuel
Last Updated: Oct-14
Login to update fuel prices
SS:
Contact Base Operations at Page FieldMore FBO Information
 
Add another FBO Facility Photos Catering Weather Repair Courtesy Rental Type 100LL JetA JetA+ MOGAS 8087
Services Transportation Aviation Fuel Prices: Prices include tax


model-print
model-print
model-print
model-print